createdAt,value
2018-07-21T00:02:04.326Z,18.43
2018-07-21T00:04:33.656Z,13.23
2018-07-21T00:07:03.275Z,14.90
2018-07-21T00:09:33.739Z,16.23
2018-07-21T00:12:03.436Z,15.97
2018-07-21T00:14:33.258Z,14.87
2018-07-21T00:17:03.162Z,15.83
2018-07-21T00:19:33.556Z,13.97
2018-07-21T00:22:03.014Z,17.07
2018-07-21T00:24:32.622Z,16.23
2018-07-21T00:27:02.916Z,10.50
2018-07-21T00:29:32.908Z,12.03
2018-07-21T00:32:03.202Z,13.43
2018-07-21T00:34:33.615Z,9.00
2018-07-21T00:37:04.229Z,14.30
2018-07-21T00:39:34.207Z,11.00
2018-07-21T00:42:06.094Z,8.10
2018-07-21T00:44:36.270Z,10.97
2018-07-21T00:47:06.258Z,8.93
2018-07-21T00:49:36.989Z,7.73
2018-07-21T00:52:07.056Z,7.77
2018-07-21T00:54:36.954Z,6.63
2018-07-21T00:57:06.849Z,11.47
2018-07-21T00:59:37.267Z,9.60
2018-07-21T01:02:07.660Z,9.03
2018-07-21T01:04:37.966Z,7.33
2018-07-21T01:07:08.897Z,9.13
2018-07-21T01:09:39.390Z,9.47
2018-07-21T01:12:10.187Z,9.77
2018-07-21T01:14:40.303Z,8.57
2018-07-21T01:17:10.200Z,10.83
2018-07-21T01:19:40.474Z,6.37
2018-07-21T01:22:11.031Z,8.47
2018-07-21T01:24:42.459Z,10.73
2018-07-21T01:27:12.343Z,7.07
2018-07-21T01:29:42.647Z,9.43
2018-07-21T01:32:12.961Z,8.77
2018-07-21T01:34:43.342Z,8.53
2018-07-21T01:37:14.387Z,8.27
2018-07-21T01:39:43.914Z,9.30
2018-07-21T01:42:14.330Z,9.47
2018-07-21T01:44:44.246Z,11.87
2018-07-21T01:47:15.050Z,8.87
2018-07-21T01:49:45.060Z,8.47
2018-07-21T01:52:14.510Z,8.47
2018-07-21T01:54:44.615Z,8.60
2018-07-21T01:57:14.082Z,9.30
2018-07-21T01:59:44.474Z,6.20
2018-07-21T02:02:14.410Z,9.70
2018-07-21T02:04:43.975Z,5.80
2018-07-21T02:07:13.164Z,8.33
2018-07-21T02:09:43.567Z,9.73
2018-07-21T02:12:14.550Z,10.13
2018-07-21T02:14:44.990Z,7.63
2018-07-21T02:17:14.870Z,7.23
2018-07-21T02:19:44.705Z,8.07
2018-07-21T02:22:15.389Z,8.50
2018-07-21T02:24:45.585Z,9.10
2018-07-21T02:27:15.762Z,7.40
2018-07-21T02:29:45.474Z,7.13
2018-07-21T02:32:15.978Z,8.33
2018-07-21T02:34:46.184Z,7.17
2018-07-21T02:37:16.191Z,10.43
2018-07-21T02:39:46.222Z,6.73
2018-07-21T02:42:16.685Z,8.90
2018-07-21T02:44:46.466Z,8.70
2018-07-21T02:47:16.453Z,8.83
2018-07-21T02:49:46.545Z,6.03
2018-07-21T02:52:16.952Z,5.53
2018-07-21T02:54:47.357Z,7.60
2018-07-21T02:57:16.961Z,9.80
2018-07-21T02:59:47.215Z,7.70
2018-07-21T03:02:17.948Z,6.53
2018-07-21T03:04:47.372Z,8.00
2018-07-21T03:07:18.160Z,5.93
2018-07-21T03:09:48.320Z,8.23
2018-07-21T03:12:18.263Z,6.40
2018-07-21T03:14:48.398Z,5.63
2018-07-21T03:17:18.943Z,5.63
2018-07-21T03:19:49.013Z,10.73
2018-07-21T03:22:19.347Z,7.23
2018-07-21T03:24:49.290Z,13.93
2018-07-21T03:27:19.393Z,5.40
2018-07-21T03:29:49.591Z,9.83
2018-07-21T03:32:19.790Z,6.10
2018-07-21T03:34:49.776Z,8.47
2018-07-21T03:37:20.002Z,9.83
2018-07-21T03:39:50.027Z,8.33
2018-07-21T03:42:20.031Z,10.20
2018-07-21T03:44:49.687Z,12.93
2018-07-21T03:47:19.537Z,8.13
2018-07-21T03:49:49.153Z,10.47
2018-07-21T03:52:19.089Z,9.67
2018-07-21T03:54:47.985Z,10.00
2018-07-21T03:57:17.042Z,9.70
2018-07-21T03:59:46.939Z,8.50
2018-07-21T04:02:16.183Z,11.57
2018-07-21T04:04:46.185Z,11.23
2018-07-21T04:07:16.070Z,12.27
2018-07-21T04:09:45.467Z,11.47
2018-07-21T04:12:16.138Z,10.10
2018-07-21T04:14:46.078Z,9.40
2018-07-21T04:17:23.506Z,12.57
2018-07-21T04:19:54.207Z,15.47
2018-07-21T04:22:24.667Z,13.23
2018-07-21T04:24:54.959Z,11.50
2018-07-21T04:27:26.202Z,14.17
2018-07-21T04:29:58.070Z,12.93
2018-07-21T04:32:27.665Z,12.80
2018-07-21T04:34:57.581Z,11.23
2018-07-21T04:37:27.962Z,16.47
2018-07-21T04:39:57.746Z,13.83
2018-07-21T04:42:27.998Z,12.80
2018-07-21T04:44:57.550Z,15.03
2018-07-21T04:47:27.261Z,13.00
2018-07-21T04:49:56.939Z,12.93
2018-07-21T04:52:26.410Z,15.60
2018-07-21T04:54:56.077Z,16.23
2018-07-21T04:57:26.446Z,15.60
2018-07-21T04:59:56.971Z,17.20
2018-07-21T05:02:28.082Z,15.67
2018-07-21T05:04:58.116Z,16.93
2018-07-21T05:07:28.150Z,15.67
2018-07-21T05:09:57.846Z,14.70
2018-07-21T05:12:28.050Z,16.43
2018-07-21T05:14:58.068Z,18.20
2018-07-21T05:17:29.197Z,13.50
2018-07-21T05:20:00.090Z,14.77
2018-07-21T05:22:29.958Z,12.67
2018-07-21T05:24:59.726Z,14.97
2018-07-21T05:27:30.278Z,14.13
2018-07-21T05:30:00.184Z,14.03
2018-07-21T05:32:30.278Z,16.97
2018-07-21T05:35:00.498Z,16.30
2018-07-21T05:37:29.987Z,16.93
2018-07-21T05:40:00.334Z,14.20
2018-07-21T05:42:30.230Z,14.30
2018-07-21T05:45:00.706Z,20.90
2018-07-21T05:47:30.259Z,14.33
2018-07-21T05:50:01.059Z,15.03
2018-07-21T05:52:31.479Z,17.73
2018-07-21T05:55:01.223Z,15.80
2018-07-21T05:57:31.002Z,16.40
2018-07-21T06:00:01.686Z,20.17
2018-07-21T06:02:31.916Z,17.60
2018-07-21T06:05:01.736Z,15.77
2018-07-21T06:07:31.844Z,16.43
2018-07-21T06:10:01.846Z,16.97
2018-07-21T06:12:31.639Z,16.03
2018-07-21T06:15:02.074Z,16.27
2018-07-21T06:17:32.011Z,17.13
2018-07-21T06:20:02.050Z,13.53
2018-07-21T06:22:33.890Z,14.50
2018-07-21T06:25:04.967Z,17.17
2018-07-21T06:27:35.403Z,14.60
2018-07-21T06:30:06.043Z,15.70
2018-07-21T06:32:35.783Z,19.17
2018-07-21T06:35:06.607Z,16.73
2018-07-21T06:37:37.783Z,15.20
2018-07-21T06:40:07.860Z,13.00
2018-07-21T06:42:37.894Z,17.80
2018-07-21T06:45:08.271Z,19.97
2018-07-21T06:47:38.698Z,17.63
2018-07-21T06:50:09.163Z,15.53
2018-07-21T06:52:40.417Z,12.37
2018-07-21T06:55:12.215Z,14.47
2018-07-21T06:57:44.082Z,11.70
2018-07-21T07:00:14.807Z,12.00
2018-07-21T07:02:45.570Z,11.07
2018-07-21T07:05:16.088Z,13.63
2018-07-21T07:07:46.750Z,12.90
2018-07-21T07:10:16.699Z,13.83
2018-07-21T07:12:45.831Z,12.63
2018-07-21T07:15:16.806Z,17.53
2018-07-21T07:17:46.310Z,12.37
2018-07-21T07:20:16.062Z,12.73
2018-07-21T07:22:45.402Z,14.50
2018-07-21T07:25:15.378Z,13.53
2018-07-21T07:27:45.193Z,12.13
2018-07-21T07:30:15.275Z,13.33
2018-07-21T07:32:44.752Z,8.80
2018-07-21T07:35:14.693Z,11.70
2018-07-21T07:37:45.875Z,14.13
2018-07-21T07:40:15.590Z,10.70
2018-07-21T07:42:45.123Z,11.20
2018-07-21T07:45:14.837Z,11.37
2018-07-21T07:47:44.615Z,13.37
2018-07-21T07:50:15.282Z,12.60
2018-07-21T07:52:45.385Z,11.03
2018-07-21T07:55:14.891Z,14.37
2018-07-21T07:57:44.542Z,12.37
2018-07-21T08:00:14.619Z,10.10
2018-07-21T08:02:44.469Z,9.47
2018-07-21T08:05:14.202Z,13.70
2018-07-21T08:07:43.114Z,6.53
2018-07-21T08:10:13.466Z,9.07
2018-07-21T08:12:43.126Z,8.70
2018-07-21T08:15:12.587Z,8.87
2018-07-21T08:17:42.862Z,9.43
2018-07-21T08:20:12.942Z,11.07
2018-07-21T08:22:42.339Z,8.40
2018-07-21T08:25:12.408Z,10.23
2018-07-21T08:27:42.802Z,9.90
2018-07-21T08:30:13.024Z,9.47
2018-07-21T08:32:43.035Z,8.33
2018-07-21T08:35:13.375Z,9.87
2018-07-21T08:37:42.862Z,6.23
2018-07-21T08:40:12.043Z,9.27
2018-07-21T08:42:41.762Z,7.87
2018-07-21T08:45:12.923Z,8.93
2018-07-21T08:47:44.131Z,8.37
2018-07-21T08:50:14.786Z,8.83
2018-07-21T08:52:45.269Z,7.63
2018-07-21T08:55:15.152Z,9.20
2018-07-21T08:57:45.302Z,7.73
2018-07-21T09:00:14.918Z,8.33
2018-07-21T09:02:44.199Z,10.50
2018-07-21T09:05:13.565Z,9.20
2018-07-21T09:07:43.206Z,9.60
2018-07-21T09:10:13.344Z,9.90
2018-07-21T09:12:44.040Z,7.63
2018-07-21T09:15:13.765Z,11.03
2018-07-21T09:17:44.207Z,6.43
2018-07-21T09:20:14.278Z,7.30
2018-07-21T09:22:44.117Z,8.37
2018-07-21T09:25:14.646Z,10.10
2018-07-21T09:27:44.250Z,7.73
2018-07-21T09:30:14.591Z,8.27
2018-07-21T09:32:44.198Z,8.33
2018-07-21T09:35:14.254Z,8.03
2018-07-21T09:37:44.151Z,7.90
2018-07-21T09:40:13.747Z,8.43
2018-07-21T09:42:44.023Z,6.83
2018-07-21T09:45:13.451Z,7.73
2018-07-21T09:47:43.466Z,7.10
2018-07-21T09:50:13.465Z,6.17
2018-07-21T09:52:43.203Z,7.27
2018-07-21T09:55:13.926Z,8.73
2018-07-21T09:57:44.473Z,5.97
2018-07-21T10:00:18.116Z,6.90
2018-07-21T10:02:47.743Z,6.57
2018-07-21T10:05:17.345Z,7.47
2018-07-21T10:07:46.919Z,7.53
2018-07-21T10:10:16.947Z,6.20
2018-07-21T10:12:47.263Z,5.97
2018-07-21T10:15:17.899Z,5.73
2018-07-21T10:17:48.494Z,9.80
2018-07-21T10:20:18.234Z,6.17
2018-07-21T10:22:47.999Z,6.50
2018-07-21T10:25:23.531Z,11.03
2018-07-21T10:27:58.442Z,9.27
2018-07-21T10:30:28.417Z,6.70
2018-07-21T10:32:58.196Z,6.57
2018-07-21T10:35:27.804Z,15.10
2018-07-21T10:37:58.119Z,8.83
2018-07-21T10:40:27.668Z,8.20
2018-07-21T10:42:58.402Z,6.13
2018-07-21T10:45:29.636Z,7.57
2018-07-21T10:47:59.676Z,10.53
2018-07-21T10:50:28.662Z,7.37
2018-07-21T10:52:59.111Z,6.70
2018-07-21T10:55:29.194Z,9.87
2018-07-21T10:57:58.807Z,11.63
2018-07-21T11:00:28.379Z,6.67
2018-07-21T11:02:57.719Z,7.43
2018-07-21T11:05:28.963Z,9.53
2018-07-21T11:07:58.547Z,7.80
2018-07-21T11:10:28.618Z,5.57
2018-07-21T11:12:58.840Z,7.13
2018-07-21T11:15:29.100Z,7.87
2018-07-21T11:18:00.164Z,6.43
2018-07-21T11:20:29.914Z,6.80
2018-07-21T11:22:59.072Z,8.77
2018-07-21T11:25:29.603Z,7.87
2018-07-21T11:27:59.081Z,8.67
2018-07-21T11:30:28.589Z,11.37
2018-07-21T11:32:58.326Z,10.30
2018-07-21T11:35:28.133Z,8.60
2018-07-21T11:37:58.254Z,11.57
2018-07-21T11:40:27.460Z,9.50
2018-07-21T11:42:57.094Z,7.53
2018-07-21T11:45:26.283Z,6.70
2018-07-21T11:47:56.375Z,9.73
2018-07-21T11:50:27.913Z,6.77
2018-07-21T11:52:58.654Z,8.83
2018-07-21T11:55:28.633Z,6.10
2018-07-21T11:57:58.206Z,8.73
2018-07-21T12:00:28.886Z,8.23
2018-07-21T12:02:59.540Z,6.47
2018-07-21T12:05:29.123Z,7.00
2018-07-21T12:07:58.918Z,7.63
2018-07-21T12:10:28.498Z,9.90
2018-07-21T12:12:58.078Z,9.27
2018-07-21T12:15:28.018Z,6.60
2018-07-21T12:17:58.319Z,7.97
2018-07-21T12:20:27.559Z,6.63
2018-07-21T12:22:57.164Z,9.40
2018-07-21T12:25:27.033Z,11.17
2018-07-21T12:27:56.491Z,6.20
2018-07-21T12:30:26.995Z,10.27
2018-07-21T12:32:56.771Z,7.03
2018-07-21T12:35:26.611Z,7.53
2018-07-21T12:37:57.387Z,8.93
2018-07-21T12:40:26.961Z,9.53
2018-07-21T12:42:56.945Z,8.87
2018-07-21T12:45:27.026Z,7.43
2018-07-21T12:47:56.960Z,9.77
2018-07-21T12:50:26.910Z,6.87
2018-07-21T12:52:57.422Z,9.13
2018-07-21T12:55:27.304Z,8.23
2018-07-21T12:57:59.047Z,12.00
2018-07-21T13:00:28.398Z,10.67
2018-07-21T13:02:58.492Z,9.03
2018-07-21T13:05:28.047Z,8.63
2018-07-21T13:07:58.599Z,8.63
2018-07-21T13:10:29.050Z,7.30
2018-07-21T13:12:58.760Z,13.57
2018-07-21T13:15:28.183Z,8.40
2018-07-21T13:17:58.180Z,8.37
2018-07-21T13:20:27.992Z,10.37
2018-07-21T13:22:59.210Z,7.87
2018-07-21T13:25:29.186Z,8.93
2018-07-21T13:28:00.377Z,9.07
2018-07-21T13:30:30.674Z,8.57
2018-07-21T13:33:00.847Z,6.37
2018-07-21T13:35:31.047Z,8.07
2018-07-21T13:38:01.381Z,6.97
2018-07-21T13:40:31.299Z,8.80
2018-07-21T13:43:03.107Z,9.23
2018-07-21T13:45:32.298Z,9.10
2018-07-21T13:48:01.741Z,8.27
2018-07-21T13:50:33.278Z,9.13
2018-07-21T13:53:02.552Z,9.27
2018-07-21T13:55:33.670Z,8.67
2018-07-21T13:58:04.210Z,11.00
2018-07-21T14:00:34.143Z,7.63
2018-07-21T14:03:04.607Z,7.27
2018-07-21T14:05:34.811Z,9.70
2018-07-21T14:08:04.686Z,8.20
2018-07-21T14:10:35.011Z,8.67
2018-07-21T14:13:06.198Z,9.30
2018-07-21T14:15:36.374Z,8.00
2018-07-21T14:18:07.211Z,7.13
2018-07-21T14:20:37.132Z,9.27
2018-07-21T14:23:06.950Z,7.90
2018-07-21T14:25:36.650Z,10.17
2018-07-21T14:28:06.262Z,7.33
2018-07-21T14:30:37.699Z,8.47
2018-07-21T14:33:07.623Z,10.53
2018-07-21T14:35:37.491Z,6.50
2018-07-21T14:38:07.779Z,8.10
2018-07-21T14:40:37.688Z,7.47
2018-07-21T14:43:07.546Z,7.70
2018-07-21T14:45:38.046Z,7.83
2018-07-21T14:48:07.924Z,9.13
2018-07-21T14:50:38.865Z,9.87
2018-07-21T14:53:08.647Z,8.43
2018-07-21T14:55:37.843Z,10.63
2018-07-21T14:58:07.112Z,9.17
2018-07-21T15:00:37.235Z,8.77
2018-07-21T15:03:06.814Z,12.67
2018-07-21T15:05:37.374Z,9.90
2018-07-21T15:08:07.503Z,11.40
2018-07-21T15:10:38.942Z,8.40
2018-07-21T15:13:08.487Z,15.83
2018-07-21T15:15:38.314Z,10.13
2018-07-21T15:18:07.938Z,11.10
2018-07-21T15:20:37.551Z,9.40
2018-07-21T15:23:07.307Z,7.77
2018-07-21T15:25:37.238Z,10.77
2018-07-21T15:28:07.857Z,8.67
2018-07-21T15:30:38.142Z,11.63
2018-07-21T15:33:07.958Z,11.27
2018-07-21T15:35:38.757Z,9.87
2018-07-21T15:38:09.304Z,10.27
2018-07-21T15:40:39.578Z,15.23
2018-07-21T15:43:09.807Z,6.50
2018-07-21T15:45:40.173Z,7.83
2018-07-21T15:48:10.160Z,8.10
2018-07-21T15:50:39.823Z,8.43
2018-07-21T15:53:10.451Z,8.47
2018-07-21T15:55:39.866Z,9.10
2018-07-21T15:58:09.672Z,8.13
2018-07-21T16:00:38.529Z,7.07
2018-07-21T16:03:08.478Z,6.57
2018-07-21T16:05:38.182Z,9.47
2018-07-21T16:08:08.601Z,10.77
2018-07-21T16:10:39.003Z,10.10
2018-07-21T16:13:09.413Z,9.40
2018-07-21T16:15:39.183Z,9.63
2018-07-21T16:18:08.387Z,8.17
2018-07-21T16:20:38.070Z,10.17
2018-07-21T16:23:08.111Z,7.13
2018-07-21T16:25:37.694Z,10.43
2018-07-21T16:28:07.153Z,10.20
2018-07-21T16:30:37.135Z,8.73
2018-07-21T16:33:07.751Z,9.37
2018-07-21T16:35:37.634Z,10.03
2018-07-21T16:38:08.458Z,11.57
2018-07-21T16:40:38.876Z,8.37
2018-07-21T16:43:08.886Z,8.00
2018-07-21T16:45:39.014Z,7.43
2018-07-21T16:48:09.238Z,8.13
2018-07-21T16:50:40.391Z,8.00
2018-07-21T16:53:10.266Z,9.93
2018-07-21T16:55:40.822Z,11.30
2018-07-21T16:58:10.962Z,8.30
2018-07-21T17:00:41.313Z,10.33
2018-07-21T17:03:11.606Z,9.40
2018-07-21T17:05:41.166Z,7.33
2018-07-21T17:08:10.619Z,7.90
2018-07-21T17:10:40.286Z,9.00
2018-07-21T17:13:12.286Z,7.23
2018-07-21T17:15:42.296Z,8.40
2018-07-21T17:18:12.443Z,9.17
2018-07-21T17:20:41.618Z,8.13
2018-07-21T17:23:11.934Z,9.03
2018-07-21T17:25:42.972Z,7.93
2018-07-21T17:28:12.395Z,9.77
2018-07-21T17:30:42.279Z,8.23
2018-07-21T17:33:12.306Z,11.47
2018-07-21T17:35:41.742Z,10.37
2018-07-21T17:38:12.035Z,10.57
2018-07-21T17:40:43.075Z,9.97
2018-07-21T17:43:13.609Z,8.67
2018-07-21T17:45:44.182Z,9.63
2018-07-21T17:48:15.205Z,10.53
2018-07-21T17:50:45.122Z,8.27
2018-07-21T17:53:16.036Z,7.80
2018-07-21T17:55:45.881Z,10.43
2018-07-21T17:58:15.876Z,11.30
2018-07-21T18:00:45.878Z,11.77
2018-07-21T18:03:16.301Z,12.03
2018-07-21T18:05:46.382Z,12.50
2018-07-21T18:08:15.846Z,11.40
2018-07-21T18:10:45.530Z,12.73
2018-07-21T18:13:16.149Z,11.13
2018-07-21T18:15:46.209Z,11.67
2018-07-21T18:18:16.621Z,10.60
2018-07-21T18:20:46.030Z,11.27
2018-07-21T18:23:15.715Z,10.50
2018-07-21T18:25:45.059Z,11.17
2018-07-21T18:28:15.227Z,9.97
2018-07-21T18:30:44.649Z,9.77
2018-07-21T18:33:13.963Z,8.53
2018-07-21T18:35:43.246Z,9.17
2018-07-21T18:38:14.557Z,9.03
2018-07-21T18:40:44.202Z,10.17
2018-07-21T18:43:14.471Z,11.57
2018-07-21T18:45:44.320Z,10.87
2018-07-21T18:48:13.882Z,9.83
2018-07-21T18:50:43.515Z,11.13
2018-07-21T18:53:13.451Z,11.43
2018-07-21T18:55:43.353Z,13.33
2018-07-21T18:58:12.839Z,13.07
2018-07-21T19:00:44.550Z,13.43
2018-07-21T19:03:15.210Z,13.03
2018-07-21T19:05:45.899Z,12.70
2018-07-21T19:08:20.755Z,13.50
2018-07-21T19:10:50.787Z,13.10
2018-07-21T19:13:20.355Z,13.87
2018-07-21T19:15:55.922Z,13.67
2018-07-21T19:18:25.850Z,13.73
2018-07-21T19:21:00.815Z,13.43
2018-07-21T19:23:30.892Z,14.13
2018-07-21T19:26:05.766Z,13.10
2018-07-21T19:28:35.669Z,14.37
2018-07-21T19:31:05.102Z,15.03
2018-07-21T19:33:35.890Z,12.90
2018-07-21T19:36:06.134Z,12.03
2018-07-21T19:38:36.436Z,12.57
2018-07-21T19:41:12.259Z,12.10
2018-07-21T19:43:42.910Z,12.67
2018-07-21T19:46:12.892Z,12.07
2018-07-21T19:48:44.110Z,11.17
2018-07-21T19:51:14.719Z,11.13
2018-07-21T19:53:46.252Z,11.40
2018-07-21T19:56:16.781Z,11.27
2018-07-21T19:58:46.962Z,16.60
2018-07-21T20:01:17.391Z,17.33
2018-07-21T20:03:47.503Z,10.47
2018-07-21T20:06:17.242Z,9.90
2018-07-21T20:08:47.141Z,10.40
2018-07-21T20:11:17.875Z,9.70
2018-07-21T20:13:47.477Z,9.80
2018-07-21T20:16:18.331Z,10.77
2018-07-21T20:18:48.866Z,9.10
2018-07-21T20:21:18.147Z,9.30
2018-07-21T20:23:47.951Z,9.47
2018-07-21T20:26:17.519Z,8.90
2018-07-21T20:28:47.835Z,9.70
2018-07-21T20:31:17.831Z,9.27
2018-07-21T20:33:47.993Z,9.50
2018-07-21T20:36:18.146Z,9.83
2018-07-21T20:38:48.062Z,9.80
2018-07-21T20:41:17.771Z,9.90
2018-07-21T20:43:47.847Z,9.83
2018-07-21T20:46:17.687Z,11.43
2018-07-21T20:48:48.130Z,9.90
2018-07-21T20:51:18.251Z,11.03
2018-07-21T20:53:49.593Z,10.77
2018-07-21T20:56:19.423Z,11.73
2018-07-21T20:58:48.835Z,11.90
2018-07-21T21:01:18.020Z,12.73
2018-07-21T21:03:47.758Z,13.73
2018-07-21T21:06:19.012Z,12.93
2018-07-21T21:08:49.206Z,12.87
2018-07-21T21:11:18.899Z,12.67
2018-07-21T21:13:49.002Z,12.40
2018-07-21T21:16:18.734Z,12.40
2018-07-21T21:18:48.842Z,11.20
2018-07-21T21:21:18.819Z,12.40
2018-07-21T21:23:48.474Z,12.07
2018-07-21T21:26:18.232Z,12.23
2018-07-21T21:28:49.162Z,11.57
2018-07-21T21:31:19.566Z,11.40
2018-07-21T21:33:49.250Z,12.13
2018-07-21T21:36:21.004Z,11.97
2018-07-21T21:38:51.282Z,11.33
2018-07-21T21:41:22.417Z,17.20
2018-07-21T21:43:52.205Z,20.50
2018-07-21T21:46:21.870Z,12.57
2018-07-21T21:48:52.642Z,13.63
2018-07-21T21:51:22.857Z,13.50
2018-07-21T21:53:53.320Z,15.60
2018-07-21T21:56:26.098Z,12.70
2018-07-21T21:58:56.276Z,19.00
2018-07-21T22:01:26.933Z,14.27
2018-07-21T22:03:56.649Z,16.67
2018-07-21T22:06:27.211Z,13.77
2018-07-21T22:08:57.219Z,16.00
2018-07-21T22:11:26.835Z,16.40
2018-07-21T22:13:56.814Z,12.23
2018-07-21T22:16:26.988Z,13.40
2018-07-21T22:18:57.385Z,16.80
2018-07-21T22:21:27.723Z,12.93
2018-07-21T22:23:58.486Z,11.17
2018-07-21T22:26:29.690Z,14.03
2018-07-21T22:29:00.991Z,13.77
2018-07-21T22:31:30.918Z,15.23
2018-07-21T22:34:01.054Z,15.33
2018-07-21T22:36:30.305Z,11.73
2018-07-21T22:39:00.721Z,13.50
2018-07-21T22:41:30.647Z,16.87
2018-07-21T22:44:01.838Z,15.90
2018-07-21T22:46:30.659Z,15.70
2018-07-21T22:49:00.524Z,11.27
2018-07-21T22:51:30.880Z,10.97
2018-07-21T22:54:01.877Z,12.50
2018-07-21T22:56:32.047Z,11.80
2018-07-21T22:59:02.501Z,12.70
2018-07-21T23:01:32.086Z,16.57
2018-07-21T23:04:01.803Z,11.27
2018-07-21T23:06:31.297Z,14.27
2018-07-21T23:09:01.703Z,17.53
2018-07-21T23:11:33.994Z,16.47
2018-07-21T23:14:04.846Z,11.27
2018-07-21T23:16:35.522Z,15.63
2018-07-21T23:19:05.016Z,13.17
2018-07-21T23:21:34.823Z,13.93
2018-07-21T23:24:05.285Z,16.90
2018-07-21T23:26:36.106Z,11.17
2018-07-21T23:29:05.947Z,15.80
2018-07-21T23:31:36.540Z,13.87
2018-07-21T23:34:06.930Z,13.17
2018-07-21T23:36:38.454Z,13.43
2018-07-21T23:39:11.065Z,14.43
2018-07-21T23:41:40.562Z,11.90
2018-07-21T23:44:09.957Z,13.60
2018-07-21T23:46:39.983Z,12.83
2018-07-21T23:49:09.757Z,14.30
2018-07-21T23:51:40.403Z,13.10
2018-07-21T23:54:11.150Z,15.83
2018-07-21T23:56:41.002Z,13.97
2018-07-21T23:59:11.984Z,14.97
